Time;durP1;ratioP1;P1;durP2;ratioP2;P2;SDS_P1;SDS_P2;PMS_P1;PMS_P2;Temp;Humidity;BMP_temperature;BMP_pressure;BME280_temperature;BME280_humidity;BME280_pressure;Samples;Min_cycle;Max_cycle;Signal;HPM_P1;HPM_P2
2023/05/07 00:00:24;;;;;;;5.60;4.60;;;19.40;96.20;;;;;;5025265;28;20256;-64
2023/05/07 00:02:49;;;;;;;6.33;4.87;;;19.40;96.40;;;;;;5023795;28;20957;-64
2023/05/07 00:05:15;;;;;;;8.80;4.93;;;19.30;96.50;;;;;;5019999;28;20561;-64
2023/05/07 00:07:41;;;;;;;5.60;5.03;;;19.30;96.80;;;;;;5035930;28;20185;-64
2023/05/07 00:10:07;;;;;;;7.27;5.27;;;19.30;97.20;;;;;;5022522;28;20431;-64
2023/05/07 00:12:33;;;;;;;5.73;5.17;;;19.20;97.40;;;;;;5025284;28;20208;-64
2023/05/07 00:15:00;;;;;;;5.93;4.97;;;19.20;97.70;;;;;;5025292;28;20928;-65
2023/05/07 00:17:25;;;;;;;5.50;4.83;;;19.20;97.90;;;;;;5024454;28;20518;-65
2023/05/07 00:19:51;;;;;;;5.00;4.50;;;19.20;98.20;;;;;;5023735;28;20527;-65
2023/05/07 00:22:17;;;;;;;5.87;4.60;;;19.10;98.50;;;;;;5024643;28;20827;-65
2023/05/07 00:24:42;;;;;;;6.03;5.17;;;19.10;98.70;;;;;;5024948;28;20172;-65
2023/05/07 00:27:08;;;;;;;5.10;4.60;;;19.00;99.10;;;;;;5025823;28;20783;-65
2023/05/07 00:29:34;;;;;;;7.87;4.67;;;19.00;99.40;;;;;;5025981;28;20208;-65
2023/05/07 00:31:59;;;;;;;5.33;4.83;;;19.00;99.60;;;;;;5024024;28;20227;-65
2023/05/07 00:34:25;;;;;;;4.57;4.00;;;19.00;99.80;;;;;;5024409;28;20263;-65
2023/05/07 00:36:50;;;;;;;6.10;4.60;;;18.90;99.90;;;;;;5024493;28;20547;-65
2023/05/07 00:39:16;;;;;;;4.97;4.43;;;18.90;99.90;;;;;;5024220;28;20239;-65
2023/05/07 00:41:41;;;;;;;5.57;4.30;;;18.90;99.90;;;;;;5015307;28;20607;-65
2023/05/07 00:44:07;;;;;;;6.20;5.00;;;18.90;99.90;;;;;;5022169;28;20182;-65
2023/05/07 00:46:33;;;;;;;4.67;4.27;;;18.90;99.90;;;;;;5026930;28;20263;-65
2023/05/07 00:48:59;;;;;;;5.60;4.60;;;18.80;99.90;;;;;;5023033;28;20247;-65
2023/05/07 00:51:27;;;;;;;5.80;5.00;;;18.80;99.90;;;;;;5020571;28;21050;-65
2023/05/07 00:53:53;;;;;;;10.90;5.00;;;18.80;99.90;;;;;;5023413;28;20427;-65
2023/05/07 00:56:20;;;;;;;6.23;4.83;;;18.80;99.90;;;;;;5022084;28;20411;-65
2023/05/07 00:58:46;;;;;;;4.40;4.00;;;18.70;99.90;;;;;;5014344;28;20489;-65
2023/05/07 01:01:11;;;;;;;6.10;5.50;;;18.70;99.90;;;;;;5024526;28;20790;-65
2023/05/07 01:03:37;;;;;;;5.93;4.50;;;18.70;99.90;;;;;;5024612;28;20499;-65
2023/05/07 01:06:04;;;;;;;8.83;4.93;;;18.70;99.90;;;;;;5023199;28;20198;-65
2023/05/07 01:08:30;;;;;;;6.10;4.50;;;18.60;99.90;;;;;;5021373;28;20270;-65
2023/05/07 01:10:57;;;;;;;7.83;4.70;;;18.60;99.90;;;;;;5022281;28;20426;-64
2023/05/07 01:13:24;;;;;;;6.23;4.77;;;18.60;99.90;;;;;;5019976;28;20992;-64
2023/05/07 01:15:50;;;;;;;6.73;5.43;;;18.60;99.90;;;;;;5019582;28;20763;-65
2023/05/07 01:18:15;;;;;;;7.13;5.00;;;18.50;99.90;;;;;;5020037;28;21009;-64
2023/05/07 01:20:42;;;;;;;5.40;4.90;;;18.50;99.90;;;;;;5018814;28;20184;-64
2023/05/07 01:23:08;;;;;;;4.47;4.07;;;18.50;99.90;;;;;;5021886;28;20195;-64
2023/05/07 01:25:34;;;;;;;8.07;4.87;;;18.40;99.90;;;;;;5022205;28;20506;-64
2023/05/07 01:28:01;;;;;;;5.60;4.47;;;18.40;99.90;;;;;;5023978;28;20431;-64
2023/05/07 01:30:27;;;;;;;5.43;4.40;;;18.40;99.90;;;;;;5024155;28;20787;-64
2023/05/07 01:33:10;;;;;;;5.53;4.80;;;18.40;99.90;;;;;;5020070;28;20474;-64
2023/05/07 01:35:40;;;;;;;5.33;4.50;;;18.30;99.90;;;;;;5019060;28;20420;-64
2023/05/07 01:38:06;;;;;;;5.47;4.70;;;18.30;99.90;;;;;;5023241;28;20446;-64
2023/05/07 01:40:32;;;;;;;5.43;4.93;;;18.20;99.90;;;;;;5020458;28;20435;-64
2023/05/07 01:42:58;;;;;;;5.50;4.00;;;18.20;99.90;;;;;;5022346;28;20432;-64
2023/05/07 01:45:25;;;;;;;5.90;4.27;;;18.20;99.90;;;;;;5024986;28;20797;-64
2023/05/07 01:47:52;;;;;;;7.47;4.57;;;18.20;99.90;;;;;;5022752;28;20209;-64
2023/05/07 01:50:20;;;;;;;4.10;3.70;;;18.10;99.90;;;;;;5018854;28;20439;-64
2023/05/07 01:52:46;;;;;;;7.73;4.27;;;18.10;99.90;;;;;;5018676;28;20973;-64
2023/05/07 01:55:12;;;;;;;7.13;4.03;;;18.10;99.90;;;;;;5024936;28;20416;-64
2023/05/07 01:57:38;;;;;;;5.80;4.53;;;18.10;99.90;;;;;;5019449;28;20432;-64
2023/05/07 02:00:05;;;;;;;5.17;4.23;;;18.10;99.90;;;;;;5020444;28;20533;-64
2023/05/07 02:02:30;;;;;;;5.33;4.03;;;18.10;99.90;;;;;;5019022;28;20180;-64
2023/05/07 02:04:56;;;;;;;5.40;4.90;;;18.00;99.90;;;;;;5021293;28;20427;-64
2023/05/07 02:07:22;;;;;;;5.47;4.40;;;18.00;99.90;;;;;;5019195;28;20192;-64
2023/05/07 02:09:47;;;;;;;7.80;4.60;;;18.00;99.90;;;;;;5019934;28;20811;-64
2023/05/07 02:12:13;;;;;;;4.83;4.13;;;18.00;99.90;;;;;;5024292;28;20258;-64
2023/05/07 02:14:39;;;;;;;5.60;4.40;;;17.90;99.90;;;;;;5021622;28;20172;-64
2023/05/07 02:17:04;;;;;;;4.60;4.20;;;17.90;99.90;;;;;;5016727;28;20185;-64
2023/05/07 02:19:30;;;;;;;5.27;4.77;;;17.80;99.90;;;;;;5024142;28;20195;-64
2023/05/07 02:21:55;;;;;;;7.80;5.40;;;17.80;99.90;;;;;;5023810;28;20303;-64
2023/05/07 02:24:21;;;;;;;5.33;4.33;;;17.80;99.90;;;;;;5015353;28;20211;-64
2023/05/07 02:26:46;;;;;;;6.40;5.27;;;17.70;99.90;;;;;;5020599;28;20190;-64
2023/05/07 02:29:12;;;;;;;6.03;5.27;;;17.80;99.90;;;;;;5022935;28;20841;-64
2023/05/07 02:31:37;;;;;;;5.00;4.50;;;17.70;99.90;;;;;;5024087;28;20253;-64
2023/05/07 02:34:03;;;;;;;6.40;4.20;;;17.70;99.90;;;;;;5022854;28;20260;-64
2023/05/07 02:36:29;;;;;;;4.87;4.37;;;17.70;99.90;;;;;;5022690;28;20176;-64
2023/05/07 02:38:54;;;;;;;7.50;4.80;;;17.70;99.90;;;;;;5015767;28;20295;-64
2023/05/07 02:41:20;;;;;;;5.40;4.40;;;17.70;99.90;;;;;;5023360;28;20187;-64
2023/05/07 02:43:46;;;;;;;5.90;4.37;;;17.60;99.90;;;;;;5025238;28;20187;-64
2023/05/07 02:46:12;;;;;;;9.03;4.37;;;17.60;99.90;;;;;;5024784;28;20184;-64
2023/05/07 02:48:37;;;;;;;4.80;4.33;;;17.60;99.90;;;;;;5017878;28;20215;-64
2023/05/07 02:51:04;;;;;;;10.53;4.47;;;17.60;99.90;;;;;;5021424;28;20276;-64
2023/05/07 02:53:29;;;;;;;5.80;4.47;;;17.60;99.90;;;;;;5018264;28;20668;-64
2023/05/07 02:55:59;;;;;;;5.27;4.40;;;17.60;99.90;;;;;;5022747;28;20446;-64
2023/05/07 02:58:25;;;;;;;8.60;4.53;;;17.60;99.90;;;;;;5024413;28;20274;-64
2023/05/07 03:00:51;;;;;;;4.67;4.17;;;17.60;99.90;;;;;;5018691;28;21008;-64
2023/05/07 03:03:17;;;;;;;5.00;4.40;;;17.50;99.90;;;;;;5021674;28;20422;-64
2023/05/07 03:05:43;;;;;;;6.23;4.50;;;17.50;99.90;;;;;;5017914;28;20439;-64
2023/05/07 03:08:10;;;;;;;8.27;4.63;;;17.50;99.90;;;;;;5022024;28;20213;-64
2023/05/07 03:10:36;;;;;;;5.87;4.53;;;17.50;99.90;;;;;;5023760;28;20249;-64
2023/05/07 03:13:02;;;;;;;4.57;4.00;;;17.50;99.90;;;;;;5021706;28;20494;-65
2023/05/07 03:15:28;;;;;;;5.57;4.87;;;17.50;99.90;;;;;;5014200;28;20467;-64
2023/05/07 03:17:53;;;;;;;5.13;4.63;;;17.50;99.90;;;;;;5021542;28;20193;-64
2023/05/07 03:20:19;;;;;;;5.30;4.60;;;17.50;99.90;;;;;;5027349;28;20181;-64
2023/05/07 03:22:44;;;;;;;5.40;4.30;;;17.50;99.90;;;;;;5022854;28;20186;-65
2023/05/07 03:25:10;;;;;;;5.40;4.57;;;17.40;99.90;;;;;;5019780;28;20191;-64
2023/05/07 03:27:36;;;;;;;4.47;4.07;;;17.40;99.90;;;;;;5026757;28;20184;-64
2023/05/07 03:30:02;;;;;;;5.03;4.53;;;17.40;99.90;;;;;;5023225;28;20189;-64
2023/05/07 03:32:27;;;;;;;4.87;4.20;;;17.30;99.90;;;;;;5026303;28;20330;-65
2023/05/07 03:34:53;;;;;;;5.47;4.63;;;17.30;99.90;;;;;;5024100;28;20192;-65
2023/05/07 03:37:19;;;;;;;7.30;5.07;;;17.30;99.90;;;;;;5025472;28;20188;-64
2023/05/07 03:39:44;;;;;;;5.30;4.77;;;17.30;99.90;;;;;;5024716;28;20220;-65
2023/05/07 03:42:10;;;;;;;5.90;4.43;;;17.20;99.90;;;;;;5025773;28;20206;-65
2023/05/07 03:44:37;;;;;;;5.00;4.50;;;17.20;99.90;;;;;;5022553;28;20662;-65
2023/05/07 03:47:03;;;;;;;4.73;4.23;;;17.20;99.90;;;;;;5023129;28;20530;-65
2023/05/07 03:49:29;;;;;;;5.53;4.90;;;17.20;99.90;;;;;;5020351;28;20223;-64
2023/05/07 03:51:55;;;;;;;5.70;4.67;;;17.10;99.90;;;;;;5019884;28;20458;-65
2023/05/07 03:54:21;;;;;;;7.77;4.67;;;17.10;99.90;;;;;;5024050;28;20177;-65
2023/05/07 03:56:46;;;;;;;5.30;4.73;;;17.10;99.90;;;;;;5025141;28;20518;-65
2023/05/07 03:59:13;;;;;;;6.33;5.70;;;17.00;99.90;;;;;;5020879;28;20802;-65
2023/05/07 04:01:38;;;;;;;8.33;4.73;;;17.00;99.90;;;;;;5024682;28;20637;-64
2023/05/07 04:04:04;;;;;;;6.57;4.40;;;17.00;99.90;;;;;;5024856;28;20523;-64
2023/05/07 04:06:30;;;;;;;4.93;4.20;;;17.00;99.90;;;;;;5022702;28;20188;-64
2023/05/07 04:08:59;;;;;;;5.00;4.50;;;17.00;99.90;;;;;;5018901;28;20291;-65
2023/05/07 04:11:24;;;;;;;5.20;4.70;;;17.00;99.90;;;;;;5019887;28;20790;-65
2023/05/07 04:13:50;;;;;;;5.03;4.20;;;16.90;99.90;;;;;;5020489;28;20475;-65
2023/05/07 04:16:16;;;;;;;4.90;4.40;;;16.90;99.90;;;;;;5024038;28;20188;-64
2023/05/07 04:18:41;;;;;;;7.83;4.90;;;16.90;99.90;;;;;;5026051;28;20215;-64
2023/05/07 04:21:18;;;;;;;8.00;4.97;;;16.90;99.90;;;;;;5021428;28;20188;-65
2023/05/07 04:23:44;;;;;;;7.07;5.57;;;16.90;99.90;;;;;;5023119;28;20180;-65
2023/05/07 04:26:10;;;;;;;5.90;5.00;;;16.90;99.90;;;;;;5023097;28;20450;-64
2023/05/07 04:28:36;;;;;;;5.47;4.97;;;16.90;99.90;;;;;;5024303;28;20738;-65
2023/05/07 04:31:01;;;;;;;6.70;4.40;;;16.90;99.90;;;;;;5023180;28;20215;-65
2023/05/07 04:33:27;;;;;;;5.90;5.00;;;16.90;99.90;;;;;;5023701;28;20972;-65
2023/05/07 04:35:52;;;;;;;6.07;5.47;;;16.90;99.90;;;;;;5024484;28;20189;-65
2023/05/07 04:38:18;;;;;;;5.70;5.10;;;16.90;99.90;;;;;;5025907;28;20200;-65
2023/05/07 04:40:44;;;;;;;7.17;4.67;;;16.90;99.90;;;;;;5022211;28;20840;-65
2023/05/07 04:43:10;;;;;;;5.13;4.60;;;16.80;99.90;;;;;;5024742;28;20180;-65
2023/05/07 04:45:36;;;;;;;6.63;4.97;;;16.80;99.90;;;;;;5022723;28;20434;-65
2023/05/07 04:48:01;;;;;;;5.23;4.73;;;16.80;99.90;;;;;;5021138;28;20287;-65
2023/05/07 04:50:27;;;;;;;6.33;5.40;;;16.80;99.90;;;;;;5024553;28;20423;-65
2023/05/07 04:52:53;;;;;;;5.70;4.40;;;16.80;99.90;;;;;;5025095;28;20577;-65
2023/05/07 04:55:18;;;;;;;6.37;5.70;;;16.80;99.90;;;;;;5021317;28;20196;-65
2023/05/07 04:57:45;;;;;;;5.83;5.23;;;16.80;99.90;;;;;;5025022;28;20271;-65
2023/05/07 05:00:14;;;;;;;6.90;5.03;;;16.80;99.90;;;;;;5015903;28;20296;-65
2023/05/07 05:02:40;;;;;;;5.30;4.80;;;16.80;99.90;;;;;;5021312;28;20534;-65
2023/05/07 05:05:06;;;;;;;8.37;5.00;;;16.80;99.90;;;;;;5022975;28;20422;-65
2023/05/07 05:07:31;;;;;;;5.43;4.40;;;16.90;99.90;;;;;;5024418;28;20422;-65
2023/05/07 05:09:57;;;;;;;5.50;4.23;;;16.90;99.90;;;;;;5021615;28;20436;-65
2023/05/07 05:12:23;;;;;;;5.60;5.10;;;16.90;99.90;;;;;;5023414;28;20663;-65
2023/05/07 05:14:48;;;;;;;5.87;4.83;;;16.90;99.90;;;;;;5021713;28;20438;-65
2023/05/07 05:17:14;;;;;;;4.73;4.10;;;16.90;99.90;;;;;;5021939;28;20192;-65
2023/05/07 05:19:40;;;;;;;5.33;4.40;;;17.00;99.90;;;;;;5024410;28;20204;-65
2023/05/07 05:22:05;;;;;;;5.17;4.67;;;17.00;99.90;;;;;;5023223;28;20904;-65
2023/05/07 05:24:31;;;;;;;5.70;4.43;;;17.00;99.90;;;;;;5025671;28;20707;-65
2023/05/07 05:26:57;;;;;;;6.27;4.53;;;17.10;99.90;;;;;;5024860;28;20204;-65
2023/05/07 05:29:22;;;;;;;5.03;4.43;;;17.20;99.90;;;;;;5020885;28;20824;-65
2023/05/07 05:31:48;;;;;;;5.30;4.80;;;17.20;99.90;;;;;;5023518;28;20196;-65
2023/05/07 05:34:14;;;;;;;4.57;4.17;;;17.30;99.90;;;;;;5025980;28;20291;-65
2023/05/07 05:36:39;;;;;;;9.57;4.53;;;17.40;99.90;;;;;;5020186;28;20191;-65
2023/05/07 05:39:05;;;;;;;5.30;4.80;;;17.40;99.90;;;;;;5024692;28;20283;-65
2023/05/07 05:41:31;;;;;;;5.10;4.60;;;17.50;99.90;;;;;;5024027;28;20195;-65
2023/05/07 05:43:56;;;;;;;5.27;4.77;;;17.60;99.90;;;;;;5023743;28;20451;-65
2023/05/07 05:46:22;;;;;;;6.80;4.90;;;17.60;99.90;;;;;;5023282;28;20759;-65
2023/05/07 05:48:48;;;;;;;6.03;4.33;;;17.70;99.90;;;;;;5022788;28;20205;-65
2023/05/07 05:51:13;;;;;;;7.70;5.17;;;17.70;99.90;;;;;;5022898;28;20215;-65
2023/05/07 05:53:39;;;;;;;7.47;5.00;;;17.80;99.90;;;;;;5024614;28;20292;-65
2023/05/07 05:56:05;;;;;;;4.90;4.50;;;17.90;99.90;;;;;;5022385;28;20172;-65
2023/05/07 05:58:30;;;;;;;5.20;4.20;;;17.90;99.90;;;;;;5022377;28;20678;-65
2023/05/07 06:00:56;;;;;;;6.73;5.27;;;18.00;99.90;;;;;;5019497;28;20220;-65
2023/05/07 06:03:22;;;;;;;4.57;3.97;;;18.10;99.90;;;;;;5017316;28;20263;-65
2023/05/07 06:05:47;;;;;;;5.90;5.30;;;18.20;99.90;;;;;;5022379;28;20252;-65
2023/05/07 06:08:13;;;;;;;5.30;4.70;;;18.20;99.90;;;;;;5001969;28;20271;-65
2023/05/07 06:10:39;;;;;;;8.73;5.00;;;18.30;99.90;;;;;;5020786;28;20208;-65
2023/05/07 06:13:04;;;;;;;5.43;4.50;;;18.30;99.90;;;;;;5019785;28;20240;-65
2023/05/07 06:15:30;;;;;;;5.10;4.60;;;18.40;99.90;;;;;;5022632;28;20529;-65
2023/05/07 06:17:57;;;;;;;5.73;4.53;;;18.40;99.90;;;;;;5023367;28;20200;-65
2023/05/07 06:20:23;;;;;;;5.10;4.43;;;18.50;99.90;;;;;;5024465;28;20219;-65
2023/05/07 06:22:48;;;;;;;5.70;4.57;;;18.60;99.90;;;;;;5023224;28;20500;-65
2023/05/07 06:25:14;;;;;;;5.70;4.57;;;18.70;99.90;;;;;;5020877;28;20189;-65
2023/05/07 06:27:40;;;;;;;4.77;4.23;;;18.80;99.90;;;;;;5023790;28;20283;-65
2023/05/07 06:30:06;;;;;;;5.27;4.77;;;18.80;99.90;;;;;;5021204;28;20633;-65
2023/05/07 06:32:32;;;;;;;4.43;4.00;;;18.90;99.90;;;;;;5023168;28;20211;-65
2023/05/07 06:34:57;;;;;;;5.53;4.70;;;19.00;99.90;;;;;;5021935;28;20510;-65
2023/05/07 06:37:23;;;;;;;6.77;4.83;;;19.10;99.90;;;;;;5022655;28;20223;-65
2023/05/07 06:39:48;;;;;;;9.30;5.07;;;19.10;99.90;;;;;;5021797;28;20532;-65
2023/05/07 06:42:14;;;;;;;6.23;4.57;;;19.20;99.90;;;;;;5021096;28;20196;-65
2023/05/07 06:44:39;;;;;;;4.80;4.37;;;19.20;99.90;;;;;;5023886;28;20184;-65
2023/05/07 06:47:05;;;;;;;6.87;4.73;;;19.20;99.90;;;;;;5022306;28;20616;-65
2023/05/07 06:49:31;;;;;;;5.57;4.73;;;19.20;99.90;;;;;;5018876;28;20212;-65
2023/05/07 06:51:57;;;;;;;4.70;4.30;;;19.30;99.90;;;;;;5019229;28;20196;-65
2023/05/07 06:54:22;;;;;;;4.90;4.37;;;19.30;99.90;;;;;;5023628;28;20548;-65
2023/05/07 06:56:48;;;;;;;5.37;4.60;;;19.40;99.90;;;;;;5022401;28;20195;-65
2023/05/07 06:59:14;;;;;;;4.90;4.40;;;19.40;99.90;;;;;;5026964;28;20430;-65
2023/05/07 07:01:40;;;;;;;5.07;4.27;;;19.50;99.90;;;;;;5025566;28;20204;-65
2023/05/07 07:04:05;;;;;;;7.80;5.43;;;19.60;99.90;;;;;;5027151;28;20263;-65
2023/05/07 07:06:31;;;;;;;5.73;3.80;;;19.60;99.90;;;;;;5026631;28;20698;-66
2023/05/07 07:08:58;;;;;;;4.40;4.00;;;19.70;99.90;;;;;;5023362;28;20208;-65
2023/05/07 07:11:23;;;;;;;4.77;4.07;;;19.70;99.90;;;;;;5026122;28;20276;-66
2023/05/07 07:13:50;;;;;;;5.03;4.53;;;19.80;99.90;;;;;;5020519;28;20551;-65
2023/05/07 07:16:16;;;;;;;5.13;4.60;;;19.80;99.90;;;;;;5025868;28;20196;-65
2023/05/07 07:18:41;;;;;;;6.20;4.77;;;19.90;99.90;;;;;;5025435;28;20451;-65
2023/05/07 07:21:07;;;;;;;7.83;6.00;;;19.90;99.90;;;;;;5026149;28;20184;-65
2023/05/07 07:23:32;;;;;;;5.90;4.17;;;19.90;99.90;;;;;;5027692;28;20231;-65
2023/05/07 07:25:58;;;;;;;6.43;4.20;;;19.90;99.90;;;;;;5023893;28;20189;-66
2023/05/07 07:28:24;;;;;;;5.10;4.70;;;19.90;99.90;;;;;;5022193;28;20274;-65
2023/05/07 07:30:49;;;;;;;6.67;4.83;;;19.80;99.90;;;;;;5024722;28;20195;-65
2023/05/07 07:33:15;;;;;;;4.37;3.97;;;19.90;99.90;;;;;;5026527;28;20228;-65
2023/05/07 07:35:41;;;;;;;7.27;4.17;;;19.90;99.90;;;;;;5027247;28;20672;-66
2023/05/07 07:38:06;;;;;;;5.20;3.80;;;19.90;99.90;;;;;;5023884;28;20496;-65
2023/05/07 07:40:34;;;;;;;4.90;4.40;;;20.00;99.90;;;;;;5023005;28;20201;-65
2023/05/07 07:43:01;;;;;;;4.93;4.30;;;20.00;99.90;;;;;;5024304;28;20200;-65
2023/05/07 07:45:26;;;;;;;5.20;4.27;;;20.00;99.90;;;;;;5021582;28;20482;-65
2023/05/07 07:47:52;;;;;;;4.70;4.30;;;19.90;99.90;;;;;;5024378;28;21006;-65
2023/05/07 07:50:18;;;;;;;4.10;3.70;;;19.90;99.90;;;;;;5019546;28;20597;-65
2023/05/07 07:52:44;;;;;;;5.33;3.90;;;19.90;99.90;;;;;;5025655;28;20291;-65
2023/05/07 07:55:10;;;;;;;4.73;4.00;;;20.00;99.90;;;;;;5025676;28;20180;-65
2023/05/07 07:57:35;;;;;;;5.90;5.40;;;19.90;99.90;;;;;;5021977;28;20437;-65
2023/05/07 08:00:02;;;;;;;4.50;4.10;;;19.80;99.90;;;;;;5025891;28;20183;-65
2023/05/07 08:02:27;;;;;;;4.43;3.90;;;19.80;99.90;;;;;;5022478;28;20813;-65
2023/05/07 08:04:53;;;;;;;7.20;4.73;;;19.70;99.90;;;;;;5023688;28;20530;-66
2023/05/07 08:07:20;;;;;;;7.40;3.97;;;19.60;99.90;;;;;;5023813;28;20213;-65
2023/05/07 08:09:46;;;;;;;4.87;4.03;;;19.60;99.90;;;;;;5024567;28;20212;-65
2023/05/07 08:12:12;;;;;;;4.40;4.00;;;19.70;99.90;;;;;;5022967;28;20470;-65
2023/05/07 08:14:38;;;;;;;4.00;3.57;;;19.60;99.90;;;;;;5015276;28;20416;-65
2023/05/07 08:17:03;;;;;;;6.07;4.30;;;19.60;99.90;;;;;;5021386;28;20268;-65
2023/05/07 08:19:29;;;;;;;5.33;4.20;;;19.70;99.90;;;;;;5025114;28;20900;-65
2023/05/07 08:21:55;;;;;;;4.90;4.40;;;19.80;99.90;;;;;;5026243;28;20239;-65
2023/05/07 08:24:20;;;;;;;4.80;4.30;;;19.90;99.90;;;;;;5023837;28;20181;-65
2023/05/07 08:26:46;;;;;;;5.40;4.30;;;19.80;99.90;;;;;;5025681;28;20435;-65
2023/05/07 08:29:12;;;;;;;6.83;3.70;;;19.80;99.90;;;;;;5020860;28;20215;-65
2023/05/07 08:31:39;;;;;;;4.93;4.43;;;19.80;99.90;;;;;;5026358;28;20192;-65
2023/05/07 08:34:06;;;;;;;4.70;3.70;;;19.90;99.90;;;;;;5022418;28;20204;-65
2023/05/07 08:36:31;;;;;;;4.80;4.40;;;19.80;99.90;;;;;;5026308;28;20419;-64
2023/05/07 08:38:57;;;;;;;8.27;4.03;;;19.90;99.90;;;;;;5021463;28;20478;-65
2023/05/07 08:41:23;;;;;;;4.40;3.83;;;20.00;99.90;;;;;;5024194;28;20203;-65
2023/05/07 08:43:50;;;;;;;5.43;4.40;;;19.90;99.90;;;;;;5024904;28;20188;-67
2023/05/07 08:46:20;;;;;;;4.37;3.97;;;20.10;99.90;;;;;;5023103;28;20197;-65
2023/05/07 08:48:49;;;;;;;3.87;3.47;;;20.00;99.90;;;;;;5024585;28;20482;-65
2023/05/07 08:51:19;;;;;;;4.10;3.80;;;20.00;99.90;;;;;;5023280;28;20434;-65
2023/05/07 08:53:48;;;;;;;4.23;3.83;;;20.10;99.90;;;;;;5024592;28;20467;-64
2023/05/07 08:56:20;;;;;;;6.80;5.93;;;20.20;99.90;;;;;;5023825;28;20427;-64
2023/05/07 08:58:45;;;;;;;5.37;4.90;;;20.30;99.90;;;;;;5024475;28;20439;-64
2023/05/07 09:01:16;;;;;;;6.00;4.00;;;20.20;99.90;;;;;;5022002;28;20455;-64
2023/05/07 09:03:46;;;;;;;4.10;3.80;;;20.30;99.90;;;;;;5022261;28;20249;-64
2023/05/07 09:06:12;;;;;;;6.47;4.57;;;20.30;99.90;;;;;;5022322;28;20431;-64
2023/05/07 09:08:38;;;;;;;4.80;4.20;;;20.40;99.90;;;;;;5025775;28;20557;-64
2023/05/07 09:11:03;;;;;;;4.60;4.20;;;20.40;99.90;;;;;;5023026;28;20274;-64
2023/05/07 09:13:29;;;;;;;6.67;4.57;;;20.40;99.90;;;;;;5020029;28;20215;-65
2023/05/07 09:15:55;;;;;;;5.33;4.40;;;20.50;99.90;;;;;;5024807;28;20185;-65
2023/05/07 09:18:21;;;;;;;4.03;3.60;;;20.60;99.90;;;;;;5019689;28;20650;-65
2023/05/07 09:20:46;;;;;;;6.13;4.40;;;20.70;99.90;;;;;;5023720;28;20459;-65
2023/05/07 09:23:12;;;;;;;4.13;3.73;;;20.70;99.90;;;;;;5024727;28;20211;-65
2023/05/07 09:25:38;;;;;;;5.17;3.97;;;20.70;99.90;;;;;;5022516;28;20217;-67
2023/05/07 09:28:07;;;;;;;5.20;4.30;;;20.80;99.90;;;;;;5025114;28;20534;-66
2023/05/07 09:30:34;;;;;;;4.60;4.10;;;20.80;99.90;;;;;;5022487;28;20447;-66
2023/05/07 09:33:01;;;;;;;4.73;4.33;;;20.80;99.90;;;;;;5024637;28;20469;-65
2023/05/07 09:35:27;;;;;;;7.00;6.13;;;20.90;99.90;;;;;;5021609;28;20448;-66
2023/05/07 09:37:54;;;;;;;6.70;6.10;;;21.00;99.90;;;;;;5024781;28;20450;-64
2023/05/07 09:40:29;;;;;;;7.97;4.90;;;21.00;99.90;;;;;;5023475;28;21244;-65
2023/05/07 09:42:55;;;;;;;7.90;6.50;;;21.00;99.90;;;;;;5024797;28;20433;-65
2023/05/07 09:45:27;;;;;;;5.50;5.00;;;21.10;99.90;;;;;;5022947;28;20439;-65
2023/05/07 09:47:58;;;;;;;6.97;4.67;;;21.20;99.90;;;;;;5023378;28;20536;-65
2023/05/07 09:50:35;;;;;;;6.90;4.87;;;21.10;99.90;;;;;;5023772;28;20423;-65
2023/05/07 09:53:03;;;;;;;5.33;4.07;;;21.30;99.90;;;;;;5019111;28;20514;-65
2023/05/07 09:55:29;;;;;;;4.30;3.90;;;21.40;99.90;;;;;;5022134;28;20424;-65
2023/05/07 09:57:55;;;;;;;5.13;4.33;;;21.40;99.90;;;;;;5022989;28;20427;-65
2023/05/07 10:00:22;;;;;;;5.20;4.80;;;21.50;99.90;;;;;;5023128;28;20427;-65
2023/05/07 10:02:51;;;;;;;6.47;5.90;;;21.70;99.90;;;;;;5019886;28;20454;-66
2023/05/07 10:05:18;;;;;;;6.90;6.30;;;21.80;99.90;;;;;;5020750;28;20434;-64
2023/05/07 10:07:44;;;;;;;4.50;3.97;;;21.80;99.90;;;;;;5018643;28;20451;-65
2023/05/07 10:10:11;;;;;;;7.40;4.53;;;21.90;99.90;;;;;;5020240;28;20429;-64
2023/05/07 10:12:40;;;;;;;4.90;4.43;;;22.00;99.90;;;;;;5020357;28;20474;-65
2023/05/07 10:15:10;;;;;;;5.23;4.40;;;22.10;99.90;;;;;;5019617;28;20505;-64
2023/05/07 10:17:40;;;;;;;5.00;4.50;;;22.10;99.90;;;;;;5018496;28;21176;-65
2023/05/07 10:20:07;;;;;;;4.17;3.87;;;22.10;99.90;;;;;;5021984;28;20467;-65
2023/05/07 10:22:48;;;;;;;5.37;4.60;;;22.20;99.90;;;;;;5021318;28;20501;-64
2023/05/07 10:25:23;;;;;;;5.37;4.60;;;22.40;99.90;;;;;;5020261;28;20505;-64
2023/05/07 10:27:51;;;;;;;4.77;4.37;;;22.50;99.90;;;;;;5021797;28;20511;-64
2023/05/07 10:30:39;;;;;;;4.70;4.30;;;22.50;99.90;;;;;;5021822;28;20451;-65
2023/05/07 10:33:08;;;;;;;4.87;4.47;;;22.60;99.90;;;;;;5023917;28;20540;-64
2023/05/07 10:35:45;;;;;;;5.13;4.30;;;22.70;99.90;;;;;;5019005;28;20461;-65
2023/05/07 10:38:11;;;;;;;4.90;4.40;;;22.70;99.90;;;;;;5021296;28;20508;-65
2023/05/07 10:40:37;;;;;;;4.83;4.20;;;22.70;99.90;;;;;;5022811;28;20439;-65
2023/05/07 10:43:07;;;;;;;4.80;4.30;;;22.80;99.90;;;;;;5022062;28;20423;-65
2023/05/07 10:45:33;;;;;;;6.23;5.10;;;22.90;99.90;;;;;;5022072;28;20497;-65
2023/05/07 10:48:09;;;;;;;4.93;3.77;;;23.00;99.90;;;;;;5021086;28;20435;-65
2023/05/07 10:50:35;;;;;;;4.40;4.00;;;23.10;99.90;;;;;;5024228;28;20212;-65
2023/05/07 10:53:19;;;;;;;5.40;4.73;;;23.30;99.90;;;;;;5020562;28;21134;-65
2023/05/07 10:55:49;;;;;;;5.57;4.57;;;23.50;99.90;;;;;;5019364;28;20526;-66
2023/05/07 10:58:26;;;;;;;4.73;4.23;;;23.60;99.90;;;;;;5022579;28;20445;-65
2023/05/07 11:01:02;;;;;;;4.57;4.17;;;23.70;99.90;;;;;;5021132;28;20415;-65
2023/05/07 11:03:28;;;;;;;4.53;4.13;;;24.00;99.90;;;;;;5018590;28;20435;-64
2023/05/07 11:06:13;;;;;;;4.17;3.67;;;24.40;99.90;;;;;;5020901;28;20411;-65
2023/05/07 11:08:57;;;;;;;4.80;3.77;;;24.60;99.90;;;;;;5020949;28;20481;-65
2023/05/07 11:11:50;;;;;;;4.90;3.50;;;24.90;99.90;;;;;;5020051;28;20888;-64
2023/05/07 11:14:45;;;;;;;5.77;4.10;;;25.20;99.90;;;;;;5017048;28;20451;-65
2023/05/07 11:17:11;;;;;;;6.50;4.27;;;25.50;99.90;;;;;;5023085;28;20909;-65
2023/05/07 11:19:54;;;;;;;7.13;4.90;;;25.70;99.90;;;;;;5021157;28;20450;-64
2023/05/07 11:22:36;;;;;;;4.13;3.73;;;25.70;99.90;;;;;;5021203;28;20469;-65
2023/05/07 11:25:03;;;;;;;5.33;4.10;;;25.90;99.90;;;;;;5022343;28;20473;-65
2023/05/07 11:27:29;;;;;;;6.23;4.33;;;26.10;99.80;;;;;;5022165;28;20426;-66
2023/05/07 11:29:55;;;;;;;4.70;4.30;;;26.20;98.60;;;;;;5023437;28;20455;-66
2023/05/07 11:32:24;;;;;;;6.47;4.23;;;26.20;98.30;;;;;;5021443;28;20470;-66
2023/05/07 11:34:54;;;;;;;6.77;3.90;;;26.30;97.40;;;;;;5022899;28;20447;-66
2023/05/07 11:37:21;;;;;;;4.93;3.93;;;26.20;96.80;;;;;;5021034;28;20415;-66
2023/05/07 11:39:47;;;;;;;4.50;4.10;;;26.30;97.10;;;;;;5015348;28;20475;-66
2023/05/07 11:42:34;;;;;;;4.63;4.23;;;26.50;96.50;;;;;;5024865;28;20481;-63
2023/05/07 11:45:00;;;;;;;5.43;3.87;;;26.70;96.50;;;;;;5022582;28;20442;-65
2023/05/07 11:47:29;;;;;;;4.83;4.33;;;27.00;96.10;;;;;;5025305;28;20423;-65
2023/05/07 11:49:55;;;;;;;4.53;3.97;;;27.30;95.80;;;;;;5023681;28;20466;-65
2023/05/07 11:52:22;;;;;;;3.93;3.60;;;27.70;95.00;;;;;;5025399;28;20968;-65
2023/05/07 11:54:52;;;;;;;4.47;3.80;;;28.20;94.50;;;;;;5024157;28;20189;-65
2023/05/07 11:57:18;;;;;;;4.87;4.17;;;28.50;93.50;;;;;;5024226;28;20438;-65
2023/05/07 11:59:44;;;;;;;4.50;3.70;;;28.90;92.60;;;;;;5025618;28;20443;-65
2023/05/07 12:02:10;;;;;;;3.87;3.57;;;29.70;92.00;;;;;;5024297;28;20431;-65
2023/05/07 12:04:37;;;;;;;4.00;3.70;;;30.10;90.50;;;;;;5025446;28;20192;-65
2023/05/07 12:07:03;;;;;;;6.47;3.70;;;30.30;88.60;;;;;;5027190;28;20434;-65
2023/05/07 12:09:29;;;;;;;4.80;4.00;;;30.40;85.00;;;;;;5024424;28;20435;-65
2023/05/07 12:11:56;;;;;;;4.90;4.00;;;30.40;80.70;;;;;;5022500;28;20181;-65
2023/05/07 12:14:21;;;;;;;5.53;3.60;;;30.20;82.10;;;;;;5024865;28;20423;-65
2023/05/07 12:16:47;;;;;;;4.43;3.93;;;30.30;82.30;;;;;;5024969;28;20423;-66
2023/05/07 12:19:13;;;;;;;4.67;4.27;;;30.50;78.10;;;;;;5023197;28;20235;-66
2023/05/07 12:21:39;;;;;;;4.67;4.27;;;30.90;77.00;;;;;;5024966;28;20625;-65
2023/05/07 12:24:05;;;;;;;4.53;3.80;;;31.90;76.80;;;;;;5022227;28;20809;-66
2023/05/07 12:26:31;;;;;;;3.73;3.43;;;33.00;73.80;;;;;;5025882;28;20427;-66
2023/05/07 12:28:59;;;;;;;3.70;3.40;;;33.20;69.60;;;;;;5024927;28;20970;-66
2023/05/07 12:31:28;;;;;;;5.27;3.93;;;33.30;67.50;;;;;;5025894;28;20311;-65
2023/05/07 12:33:53;;;;;;;4.10;3.60;;;33.30;66.70;;;;;;5022908;28;20888;-64
2023/05/07 12:36:20;;;;;;;6.37;3.70;;;32.90;64.90;;;;;;5023195;28;20469;-64
2023/05/07 12:38:49;;;;;;;4.73;3.73;;;32.90;64.60;;;;;;5025095;28;20212;-65
2023/05/07 12:41:16;;;;;;;5.00;3.70;;;33.30;64.10;;;;;;5020990;28;20409;-65
2023/05/07 12:43:45;;;;;;;4.50;3.63;;;32.90;62.50;;;;;;5023457;28;20455;-65
2023/05/07 12:46:13;;;;;;;4.33;3.90;;;32.40;63.30;;;;;;5023021;28;20629;-66